Time;durP1;ratioP1;P1;durP2;ratioP2;P2;SDS_P1;SDS_P2;PMS_P1;PMS_P2;Temp;Humidity;BMP_temperature;BMP_pressure;BME280_temperature;BME280_humidity;BME280_pressure;Samples;Min_cycle;Max_cycle;Signal;HPM_P1;HPM_P2
2022/01/14 00:01:10;;;;;;;;;38.50;31.75;;;;;2.83;79.07;102926.63;5059596;28;45472;-81
2022/01/14 00:03:35;;;;;;;;;44.00;37.00;;;;;2.86;79.37;102928.50;5058313;27;45499;-81
2022/01/14 00:06:01;;;;;;;;;41.50;32.75;;;;;2.88;79.16;102924.25;5063110;27;45511;-82
2022/01/14 00:08:27;;;;;;;;;37.00;36.00;;;;;2.89;78.89;102925.16;5063183;28;45359;-81
2022/01/14 00:10:52;;;;;;;;;38.50;32.00;;;;;2.90;78.83;102925.25;5080150;27;45448;-81
2022/01/14 00:16:04;;;;;;;;;40.25;32.25;;;;;2.88;78.47;102921.63;5078276;28;45381;-80
2022/01/14 00:18:29;;;;;;;;;35.25;29.75;;;;;2.90;79.26;102920.00;5077133;27;46016;-80
2022/01/14 00:20:54;;;;;;;;;57.00;43.00;;;;;2.90;78.70;102904.34;5076956;27;45388;-80
2022/01/14 00:23:27;;;;;;;;;34.75;33.00;;;;;2.90;79.01;102906.94;5059372;27;45745;-79
2022/01/14 00:34:11;;;;;;;;;41.75;36.00;;;;;2.90;78.95;102919.09;5054822;28;45501;-80
2022/01/14 00:36:40;;;;;;;;;39.00;29.75;;;;;2.86;79.47;102914.56;5039910;28;45282;-80
2022/01/14 00:39:07;;;;;;;;;39.25;36.00;;;;;2.89;78.84;102919.94;5052882;28;46163;-80
2022/01/14 00:41:34;;;;;;;;;38.00;34.75;;;;;2.87;79.32;102912.03;5037028;28;45480;-80
2022/01/14 00:44:03;;;;;;;;;35.00;30.25;;;;;2.91;78.88;102911.34;5035083;28;45494;-81
2022/01/14 00:46:28;;;;;;;;;35.25;31.00;;;;;2.90;79.17;102908.66;5034193;28;45450;-80
2022/01/14 00:48:54;;;;;;;;;39.25;33.75;;;;;2.89;78.78;102907.75;5034193;28;45395;-80
2022/01/14 00:51:19;;;;;;;;;43.50;39.00;;;;;2.88;79.21;102916.41;5035381;28;45421;-81
2022/01/14 00:53:45;;;;;;;;;34.25;32.00;;;;;2.81;79.41;102903.91;5053774;28;45849;-80
2022/01/14 00:59:17;;;;;;;;;37.25;31.00;;;;;2.85;78.76;102916.25;5013657;28;45371;-80
2022/01/14 01:01:51;;;;;;;;;36.25;31.75;;;;;2.84;79.27;102917.09;5013075;28;45561;-80
2022/01/14 01:04:20;;;;;;;;;41.50;32.50;;;;;2.84;78.87;102911.88;5013576;28;45532;-80
2022/01/14 01:06:47;;;;;;;;;38.25;33.50;;;;;2.75;79.07;102906.19;4998216;28;45488;-81
2022/01/14 01:09:14;;;;;;;;;41.25;34.00;;;;;2.82;79.05;102910.88;5017016;28;45731;-80
2022/01/14 01:11:53;;;;;;;;;45.50;41.00;;;;;2.82;79.31;102914.41;5015337;28;45372;-80
2022/01/14 01:14:26;;;;;;;;;96.33;72.00;;;;;2.82;79.31;102913.50;5014701;28;45458;-81
2022/01/14 01:16:52;;;;;;;;;35.00;28.50;;;;;2.78;79.10;102911.56;5016092;28;45510;-80
2022/01/14 01:19:17;;;;;;;;;36.00;32.50;;;;;2.80;78.35;102918.66;5005038;28;46329;-80
2022/01/14 01:21:43;;;;;;;;;29.00;28.25;;;;;2.77;78.44;102915.88;4994202;28;45363;-80
2022/01/14 01:24:10;;;;;;;;;33.25;28.25;;;;;2.80;78.73;102918.66;4993456;28;45379;-79
2022/01/14 01:26:39;;;;;;;;;27.75;26.25;;;;;2.79;79.38;102915.97;4993345;28;45376;-80
2022/01/14 01:31:40;;;;;;;;;30.50;26.50;;;;;2.77;78.79;102915.00;5013229;28;45450;-79
2022/01/14 01:34:24;;;;;;;;;34.00;32.50;;;;;2.80;78.22;102916.03;5013668;28;45541;-79
2022/01/14 01:36:52;;;;;;;;;37.25;29.50;;;;;2.79;79.29;102910.75;5056131;28;45651;-80
2022/01/14 01:39:21;;;;;;;;;40.00;30.75;;;;;2.76;79.45;102902.75;5062620;28;45772;-81
2022/01/14 01:41:49;;;;;;;;;33.25;30.75;;;;;2.76;78.55;102914.09;5081801;27;45355;-80
2022/01/14 01:44:17;;;;;;;;;35.00;31.25;;;;;2.74;78.19;102907.03;5081310;28;45433;-79
2022/01/14 01:46:46;;;;;;;;;30.75;28.50;;;;;2.72;79.33;102904.31;5076504;28;45469;-80
2022/01/14 01:49:13;;;;;;;;;28.25;21.00;;;;;2.71;78.74;102904.25;5058897;27;46263;-80
2022/01/14 01:51:39;;;;;;;;;39.50;31.00;;;;;2.73;79.43;102907.81;5054190;28;45365;-80
2022/01/14 01:54:05;;;;;;;;;44.50;33.75;;;;;2.69;79.10;102905.88;5070159;28;45405;-80
2022/01/14 01:56:32;;;;;;;;;39.50;35.00;;;;;2.69;79.31;102903.25;5076457;27;45580;-79
2022/01/14 01:58:58;;;;;;;;;38.25;30.50;;;;;2.70;78.88;102911.16;5076430;27;46451;-80
2022/01/14 02:01:24;;;;;;;;;34.25;31.00;;;;;2.72;79.55;102906.94;5075671;27;45371;-80
2022/01/14 02:03:52;;;;;;;;;34.00;28.00;;;;;2.72;79.56;102908.63;5075238;27;45498;-81
2022/01/14 02:06:20;;;;;;;;;29.50;26.75;;;;;2.74;79.70;102904.41;5077011;27;45637;-79
2022/01/14 02:08:46;;;;;;;;;34.00;29.00;;;;;2.71;78.72;102889.47;5073898;27;45593;-80
2022/01/14 02:11:11;;;;;;;;;34.75;30.00;;;;;2.73;79.37;102892.16;5078983;27;45588;-80
2022/01/14 02:13:38;;;;;;;;;33.75;30.00;;;;;2.76;78.66;102889.69;5078957;27;45334;-80
2022/01/14 02:26:54;;;;;;;;;34.00;31.50;;;;;2.76;78.58;102895.81;5016070;28;45490;-81
2022/01/14 02:29:21;;;;;;;;;31.75;27.50;;;;;2.74;78.91;102883.50;5052933;28;45563;-80
2022/01/14 02:31:48;;;;;;;;;31.75;27.50;;;;;2.73;78.88;102879.97;5033774;28;45367;-80
2022/01/14 02:34:15;;;;;;;;;33.75;32.50;;;;;2.73;78.78;102887.81;5034680;28;45561;-82
2022/01/14 02:36:41;;;;;;;;;35.25;33.00;;;;;2.71;78.82;102876.41;5034079;28;45397;-80
2022/01/14 02:39:08;;;;;;;;;33.75;30.50;;;;;2.73;79.33;102871.25;5032787;28;45501;-79
2022/01/14 02:41:35;;;;;;;;;38.50;32.00;;;;;2.72;78.93;102856.41;5032116;28;45447;-79
2022/01/14 02:44:05;;;;;;;;;32.00;30.75;;;;;2.74;79.59;102857.38;5035733;28;45404;-78
2022/01/14 02:46:37;;;;;;;;;34.25;31.25;;;;;2.61;79.54;102835.91;5036352;28;45705;-79
2022/01/14 02:49:04;;;;;;;;;39.00;34.50;;;;;2.72;79.22;102851.19;5032225;28;45435;-79
2022/01/14 02:51:29;;;;;;;;;37.00;34.75;;;;;2.71;78.54;102849.41;5032004;28;45483;-80
2022/01/14 02:54:10;;;;;;;;;32.00;27.75;;;;;2.76;78.90;102868.78;5032191;28;45723;-79
2022/01/14 02:56:37;;;;;;;;;31.50;30.50;;;;;2.68;78.76;102852.75;5031370;28;45400;-80
2022/01/14 02:59:03;;;;;;;;;33.25;30.50;;;;;2.75;79.65;102860.06;5031233;28;45396;-79
2022/01/14 03:01:29;;;;;;;;;34.25;32.00;;;;;2.74;78.98;102858.28;5056619;28;45618;-79
2022/01/14 03:03:58;;;;;;;;;35.00;31.50;;;;;2.75;78.93;102848.72;5074616;28;45433;-79
2022/01/14 03:06:25;;;;;;;;;37.25;32.75;;;;;2.72;78.88;102844.25;5067203;28;45524;-78
2022/01/14 03:08:51;;;;;;;;;30.50;27.50;;;;;2.74;78.91;102841.72;5059520;28;47062;-79
2022/01/14 03:11:30;;;;;;;;;35.50;29.75;;;;;2.67;79.43;102830.06;5068111;28;45400;-80
2022/01/14 03:13:57;;;;;;;;;38.75;31.50;;;;;2.73;79.02;102840.81;5081744;27;45512;-80
2022/01/14 03:16:23;;;;;;;;;34.75;31.50;;;;;2.63;79.22;102820.31;5084845;28;45527;-80
2022/01/14 03:18:52;;;;;;;;;31.25;30.00;;;;;2.74;78.54;102840.00;5078900;27;46220;-80
2022/01/14 03:21:26;;;;;;;;;33.00;28.00;;;;;2.75;79.01;102831.34;5069522;27;45349;-80
2022/01/14 03:24:02;;;;;;;;;38.50;37.00;;;;;2.64;79.00;102809.94;5076722;28;45544;-79
2022/01/14 03:26:28;;;;;;;;;38.00;33.50;;;;;2.75;78.65;102833.03;5077791;27;45630;-79
2022/01/14 03:28:53;;;;;;;;;37.00;34.00;;;;;2.74;79.48;102828.66;5078051;28;46009;-81
2022/01/14 03:31:20;;;;;;;;;30.50;26.00;;;;;2.75;79.13;102828.72;5074893;27;45310;-80
2022/01/14 03:33:46;;;;;;;;;28.00;23.50;;;;;2.72;79.53;102822.44;5077272;28;45396;-81
2022/01/14 03:36:13;;;;;;;;;37.50;33.00;;;;;2.75;78.92;102825.19;5056374;28;45455;-82
2022/01/14 03:38:40;;;;;;;;;34.75;30.25;;;;;2.76;78.56;102833.13;5057705;28;45451;-81
2022/01/14 03:41:06;;;;;;;;;35.50;30.50;;;;;2.78;79.27;102835.78;5073619;28;45324;-80
2022/01/14 03:43:32;;;;;;;;;43.00;33.25;;;;;2.71;79.46;102825.91;5080308;27;45424;-81
2022/01/14 03:45:58;;;;;;;;;38.25;32.50;;;;;2.76;78.55;102833.13;5084950;27;45314;-81
2022/01/14 03:48:24;;;;;;;;;34.50;31.75;;;;;2.78;79.29;102827.97;5086558;27;46283;-82
2022/01/14 03:50:49;;;;;;;;;39.50;32.50;;;;;2.74;79.13;102826.06;5084828;28;45390;-81
2022/01/14 03:53:15;;;;;;;;;34.50;31.00;;;;;2.76;79.12;102819.16;5072139;27;45326;-82
2022/01/14 03:55:43;;;;;;;;;41.75;36.00;;;;;2.66;78.79;102807.41;5061755;28;45515;-80
2022/01/14 03:58:09;;;;;;;;;24.00;22.75;;;;;2.72;79.10;102812.00;5057414;28;46187;-81
2022/01/14 04:00:36;;;;;;;;;32.75;25.00;;;;;2.72;78.76;102812.91;5061781;28;45529;-81
2022/01/14 04:03:01;;;;;;;;;34.50;29.50;;;;;2.73;78.89;102822.53;5066719;28;45576;-79
2022/01/14 04:05:27;;;;;;;;;36.25;31.25;;;;;2.67;78.98;102798.72;5071796;27;45427;-80
2022/01/14 04:07:52;;;;;;;;;31.25;27.50;;;;;2.69;78.79;102819.69;5076809;27;45568;-80
2022/01/14 04:10:18;;;;;;;;;33.25;30.50;;;;;2.73;78.54;102812.06;5076016;27;45497;-79
2022/01/14 04:12:52;;;;;;;;;33.00;25.75;;;;;2.72;78.17;102809.38;5077519;27;45456;-80
2022/01/14 04:15:38;;;;;;;;;30.75;28.50;;;;;2.73;78.55;102813.78;5070596;27;45432;-80
2022/01/14 04:18:09;;;;;;;;;32.75;27.50;;;;;2.77;78.73;102815.75;5064033;28;46231;-80
2022/01/14 04:20:36;;;;;;;;;18.00;18.00;;;;;2.76;77.80;102814.81;5059788;28;45449;-81
2022/01/14 04:23:02;;;;;;;;;41.25;30.50;;;;;2.75;79.02;102831.34;5057688;28;45765;-80
2022/01/14 04:25:28;;;;;;;;;38.00;28.00;;;;;2.71;78.73;102810.22;5058650;28;45455;-80
2022/01/14 04:27:53;;;;;;;;;40.50;31.50;;;;;2.65;79.00;102803.88;5056671;28;45435;-78
2022/01/14 04:30:19;;;;;;;;;31.50;29.00;;;;;2.70;79.41;102816.25;5059053;28;45672;-79
2022/01/14 04:32:44;;;;;;;;;33.25;31.00;;;;;2.66;79.06;102808.28;5077568;28;45372;-80
2022/01/14 04:35:10;;;;;;;;;36.75;33.25;;;;;2.63;78.90;102799.41;5068132;27;45293;-80
2022/01/14 04:37:35;;;;;;;;;33.75;31.00;;;;;2.53;79.74;102794.56;5055649;28;46222;-79
2022/01/14 04:40:02;;;;;;;;;29.75;28.00;;;;;2.47;79.43;102780.38;5054686;28;45490;-81
2022/01/14 04:42:28;;;;;;;;;33.50;28.75;;;;;2.58;79.55;102801.81;5056296;28;45484;-80
2022/01/14 04:44:55;;;;;;;;;42.00;36.00;;;;;2.56;79.05;102803.44;5056690;28;45848;-79
2022/01/14 04:50:18;;;;;;;;;39.00;35.50;;;;;2.51;79.72;102786.66;5063880;28;45408;-80
2022/01/14 04:52:45;;;;;;;;;27.75;24.75;;;;;2.48;79.36;102786.50;5056382;28;45360;-81
2022/01/14 04:55:12;;;;;;;;;37.50;31.25;;;;;2.28;79.27;102749.91;5056186;28;45488;-80
2022/01/14 04:57:40;;;;;;;;;39.50;33.50;;;;;2.41;79.46;102768.75;5056426;28;45401;-79
2022/01/14 05:00:08;;;;;;;;;32.25;28.75;;;;;2.44;79.04;102780.22;5056806;28;45489;-80
2022/01/14 05:02:34;;;;;;;;;32.00;29.75;;;;;2.42;78.80;102781.00;5077097;27;45508;-81
2022/01/14 05:05:00;;;;;;;;;45.25;35.00;;;;;2.39;79.37;102773.91;5067597;27;45558;-79
2022/01/14 05:07:27;;;;;;;;;33.75;31.25;;;;;2.40;79.62;102793.06;5055928;27;45484;-80
2022/01/14 05:12:27;;;;;;;;;38.00;33.00;;;;;2.40;79.43;102788.75;5072031;28;45500;-80
2022/01/14 05:14:53;;;;;;;;;41.00;33.50;;;;;2.36;79.32;102792.03;5065252;28;45436;-81
2022/01/14 05:17:18;;;;;;;;;34.75;34.00;;;;;2.33;79.22;102791.88;5075137;28;46007;-81
2022/01/14 05:19:44;;;;;;;;;38.00;32.50;;;;;2.30;79.29;102791.72;5077448;28;45365;-81
2022/01/14 05:22:09;;;;;;;;;33.25;33.25;;;;;2.27;79.46;102782.03;5083579;27;44771;-81
2022/01/14 05:24:34;;;;;;;;;39.00;35.25;;;;;2.29;79.88;102789.94;5085588;28;45428;-80
2022/01/14 05:27:00;;;;;;;;;38.75;30.50;;;;;2.28;80.10;102785.56;5080354;28;46674;-81
2022/01/14 05:29:25;;;;;;;;;33.75;28.75;;;;;2.28;79.50;102778.59;5073792;27;45379;-76
2022/01/14 05:32:01;;;;;;;;;37.75;30.50;;;;;2.28;79.60;102786.44;5069227;27;45526;-75
2022/01/14 05:34:27;;;;;;;;;36.75;33.75;;;;;2.30;79.13;102783.91;5075528;27;45460;-77
2022/01/14 05:36:52;;;;;;;;;30.50;27.75;;;;;2.25;79.94;102781.06;5072980;28;45817;-77
2022/01/14 05:39:20;;;;;;;;;31.50;25.00;;;;;2.29;79.63;102789.94;5073873;27;45449;-77
2022/01/14 05:41:49;;;;;;;;;38.00;30.50;;;;;2.27;78.79;102789.84;5074339;27;45384;-76
2022/01/14 05:44:14;;;;;;;;;35.00;33.50;;;;;2.25;79.65;102796.72;5075150;27;45382;-76
2022/01/14 05:46:39;;;;;;;;;36.50;29.50;;;;;2.28;79.88;102804.69;5074422;28;46959;-75
2022/01/14 05:49:05;;;;;;;;;32.75;29.00;;;;;2.26;79.57;102806.34;5073162;27;45423;-75
2022/01/14 05:51:30;;;;;;;;;38.75;32.00;;;;;2.25;78.98;102801.94;5079235;28;45364;-77
2022/01/14 05:53:56;;;;;;;;;40.75;32.50;;;;;2.17;79.52;102798.06;5078470;27;45347;-77
2022/01/14 05:56:21;;;;;;;;;36.25;34.00;;;;;2.20;80.00;102799.91;5074970;27;46247;-76
2022/01/14 05:58:47;;;;;;;;;35.50;32.25;;;;;2.21;79.02;102797.38;5075032;27;45293;-74
2022/01/14 06:01:12;;;;;;;;;38.50;27.75;;;;;2.20;78.98;102806.06;5054479;28;45225;-76
2022/01/14 06:03:38;;;;;;;;;32.00;26.00;;;;;2.23;79.68;102803.59;5074478;28;45521;-76
2022/01/14 06:06:03;;;;;;;;;34.00;27.00;;;;;2.23;79.89;102806.19;5073208;28;46011;-77
2022/01/14 06:08:28;;;;;;;;;38.00;32.00;;;;;2.23;79.43;102797.47;5056344;27;45446;-76
2022/01/14 06:10:54;;;;;;;;;36.75;28.50;;;;;2.22;79.41;102793.97;5054942;28;45316;-75
2022/01/14 06:13:19;;;;;;;;;36.75;27.75;;;;;2.21;80.16;102792.16;5053192;28;45326;-77
2022/01/14 06:15:45;;;;;;;;;41.50;32.50;;;;;2.22;79.30;102793.97;5055061;28;45514;-75
2022/01/14 06:18:10;;;;;;;;;37.00;31.75;;;;;2.20;80.08;102795.63;5053575;28;45389;-78
2022/01/14 06:20:35;;;;;;;;;39.00;32.00;;;;;2.22;79.31;102793.06;5054865;28;45456;-76
2022/01/14 06:23:02;;;;;;;;;32.50;25.50;;;;;2.23;79.76;102803.59;5067069;28;45440;-76
2022/01/14 06:25:27;;;;;;;;;40.25;30.25;;;;;2.20;80.24;102803.44;5076921;28;46566;-77
2022/01/14 06:27:53;;;;;;;;;35.50;32.75;;;;;2.20;79.69;102794.69;5075133;28;45361;-76
2022/01/14 06:30:18;;;;;;;;;33.00;28.50;;;;;2.20;80.00;102789.47;5074947;27;45455;-76
2022/01/14 06:32:44;;;;;;;;;45.25;37.00;;;;;2.16;80.11;102793.66;5066628;27;45356;-77
2022/01/14 06:35:11;;;;;;;;;25.50;24.25;;;;;2.18;79.54;102802.44;5073200;28;46896;-76
2022/01/14 06:37:38;;;;;;;;;27.75;27.25;;;;;2.16;80.37;102797.97;5078752;27;45370;-79
2022/01/14 06:40:05;;;;;;;;;37.75;32.75;;;;;2.16;79.98;102792.75;5078113;28;45436;-77
2022/01/14 06:42:30;;;;;;;;;39.25;30.75;;;;;2.13;80.42;102794.38;5073801;28;45551;-76
2022/01/14 06:44:56;;;;;;;;;27.25;24.25;;;;;2.15;79.86;102794.47;5058286;28;45436;-76
2022/01/14 06:47:22;;;;;;;;;33.50;26.75;;;;;2.15;79.45;102797.06;5058319;28;45553;-76
2022/01/14 06:49:48;;;;;;;;;33.00;30.75;;;;;2.15;80.23;102791.84;5059127;28;45410;-77
2022/01/14 06:52:13;;;;;;;;;31.25;27.75;;;;;2.15;80.32;102794.47;5076969;28;45507;-76
2022/01/14 06:54:38;;;;;;;;;34.50;28.50;;;;;2.12;79.58;102786.50;5083363;28;47704;-77
2022/01/14 06:57:04;;;;;;;;;28.25;27.50;;;;;2.13;79.56;102788.28;5078177;28;45391;-77
2022/01/14 06:59:30;;;;;;;;;26.75;26.25;;;;;2.16;80.54;102797.97;5078215;27;45678;-78
2022/01/14 07:01:55;;;;;;;;;28.75;26.25;;;;;2.11;79.44;102790.81;5071150;27;45405;-77
2022/01/14 07:04:20;;;;;;;;;26.25;26.25;;;;;2.13;80.36;102789.19;5077595;27;45345;-78
2022/01/14 07:06:46;;;;;;;;;34.25;30.50;;;;;2.11;79.51;102782.06;5076003;27;45488;-78
2022/01/14 07:09:11;;;;;;;;;30.50;27.25;;;;;2.11;79.63;102782.06;5057740;28;45271;-77
2022/01/14 07:11:37;;;;;;;;;25.00;21.25;;;;;2.09;79.73;102771.56;5057067;28;45473;-78
2022/01/14 07:14:11;;;;;;;;;34.75;31.50;;;;;2.10;79.75;102780.31;5072671;28;46091;-77
2022/01/14 07:16:36;;;;;;;;;33.00;28.00;;;;;2.09;80.26;102782.00;5077005;28;45335;-76
2022/01/14 07:19:03;;;;;;;;;39.00;32.75;;;;;2.04;79.82;102772.19;5061894;28;45653;-77
2022/01/14 07:21:28;;;;;;;;;49.00;34.50;;;;;2.09;80.51;102775.91;5067147;28;45494;-76
2022/01/14 07:23:54;;;;;;;;;40.50;34.50;;;;;2.06;80.19;102775.75;5072748;28;46071;-77
2022/01/14 07:26:20;;;;;;;;;33.75;27.25;;;;;1.86;79.56;102735.63;5063525;27;45359;-86
2022/01/14 07:28:45;;;;;;;;;47.25;35.75;;;;;2.07;80.14;102775.81;5065604;28;45322;-75
2022/01/14 07:31:11;;;;;;;;;38.00;32.00;;;;;2.08;80.99;102768.88;5078571;27;45411;-74
2022/01/14 07:33:37;;;;;;;;;44.25;41.00;;;;;2.04;79.94;102767.84;5066940;27;45538;-76
2022/01/14 07:36:03;;;;;;;;;37.25;29.00;;;;;2.09;80.33;102783.72;5074652;27;45534;-75
2022/01/14 07:38:29;;;;;;;;;38.00;31.00;;;;;2.11;80.03;102789.91;5074250;27;45575;-75
2022/01/14 07:40:54;;;;;;;;;42.00;33.75;;;;;2.05;79.68;102771.34;5055122;28;45563;-76
2022/01/14 07:43:21;;;;;;;;;33.50;27.25;;;;;2.07;79.48;102767.13;5055166;28;46145;-76
2022/01/14 07:45:47;;;;;;;;;32.25;30.25;;;;;2.12;80.01;102776.06;5055830;28;45832;-74
2022/01/14 07:48:13;;;;;;;;;36.50;30.75;;;;;2.18;79.55;102778.06;5060537;28;45440;-75
2022/01/14 07:50:38;;;;;;;;;36.00;30.25;;;;;2.20;79.72;102784.25;5062958;28;45418;-75
2022/01/14 07:53:04;;;;;;;;;33.50;31.25;;;;;2.22;79.61;102791.34;5059008;27;46071;-75
2022/01/14 07:55:29;;;;;;;;;37.75;32.75;;;;;2.24;79.88;102797.53;5065748;28;45814;-76
2022/01/14 07:57:54;;;;;;;;;37.25;27.75;;;;;2.25;79.53;102788.88;5063048;28;45640;-81
2022/01/14 08:00:20;;;;;;;;;39.50;28.00;;;;;2.27;79.22;102797.69;5065620;28;45503;-77
2022/01/14 08:02:45;;;;;;;;;35.75;26.00;;;;;2.27;78.90;102792.47;5060351;27;45536;-76
2022/01/14 08:05:12;;;;;;;;;43.75;36.00;;;;;2.34;79.45;102797.97;5075173;28;45385;-75
2022/01/14 08:07:45;;;;;;;;;42.25;30.50;;;;;2.37;79.32;102798.13;5075284;27;45439;-77
2022/01/14 08:10:11;;;;;;;;;38.00;31.25;;;;;2.41;79.61;102800.97;5065137;27;45389;-75
2022/01/14 08:12:37;;;;;;;;;38.50;32.50;;;;;2.48;78.61;102794.34;5069720;27;46199;-76
2022/01/14 08:15:04;;;;;;;;;41.50;34.00;;;;;2.47;78.45;102782.97;5055314;28;45468;-77
2022/01/14 08:17:31;;;;;;;;;40.50;34.00;;;;;2.56;78.72;102799.94;5070646;28;45511;-77
2022/01/14 08:19:56;;;;;;;;;42.75;36.50;;;;;2.61;78.96;102788.91;5075026;27;45549;-76
2022/01/14 08:22:22;;;;;;;;;38.25;32.75;;;;;2.64;78.44;102794.28;5075491;27;45498;-76
2022/01/14 08:24:47;;;;;;;;;45.00;37.50;;;;;2.67;77.91;102802.25;5072510;27;45413;-76
2022/01/14 08:27:13;;;;;;;;;39.75;32.75;;;;;2.71;77.56;102810.22;5057088;28;45413;-75
2022/01/14 08:29:38;;;;;;;;;46.00;36.50;;;;;2.73;77.63;102792.91;5057949;28;45256;-77
2022/01/14 08:32:04;;;;;;;;;45.00;37.25;;;;;2.90;77.63;102804.16;5071413;28;45907;-75
2022/01/14 08:34:29;;;;;;;;;42.75;36.50;;;;;3.12;76.47;102798.22;5070365;27;45587;-75
2022/01/14 08:36:55;;;;;;;;;42.25;35.75;;;;;3.12;75.88;102782.53;5055846;28;45783;-79
2022/01/14 08:39:20;;;;;;;;;35.75;32.25;;;;;3.32;75.99;102797.38;5056338;28;45484;-76
2022/01/14 08:41:46;;;;;;;;;38.50;34.50;;;;;3.52;75.60;102795.69;5055052;28;45619;-76
2022/01/14 08:44:13;;;;;;;;;46.25;37.00;;;;;4.09;73.41;102800.72;5063068;28;45515;-76
2022/01/14 08:46:39;;;;;;;;;33.25;32.00;;;;;4.12;72.46;102804.31;5069409;27;45526;-83
2022/01/14 08:49:04;;;;;;;;;24.75;24.75;;;;;4.04;71.94;102793.53;5065009;28;47281;-82
2022/01/14 08:51:30;;;;;;;;;39.50;33.50;;;;;4.08;71.64;102804.19;5059618;28;46541;-82
2022/01/14 08:53:57;;;;;;;;;35.25;28.25;;;;;4.25;70.85;102798.75;5064262;28;45468;-80
2022/01/14 08:56:24;;;;;;;;;43.25;35.75;;;;;4.87;69.75;102809.09;5076541;28;45345;-82
2022/01/14 08:58:49;;;;;;;;;38.00;28.25;;;;;5.73;68.01;102801.78;5070154;28;45475;-75
2022/01/14 09:01:14;;;;;;;;;25.75;25.00;;;;;6.64;65.15;102794.34;5073444;27;45390;-75
2022/01/14 09:03:40;;;;;;;;;38.00;30.75;;;;;7.39;61.84;102779.00;5064401;28;45403;-76
2022/01/14 09:06:07;;;;;;;;;35.00;26.75;;;;;7.87;59.43;102772.44;5055930;28;45410;-74
2022/01/14 09:08:32;;;;;;;;;33.75;28.25;;;;;8.11;57.51;102777.44;5055490;28;45402;-76
2022/01/14 09:10:57;;;;;;;;;40.75;28.00;;;;;8.46;57.66;102775.69;5070531;27;45405;-76
2022/01/14 09:13:23;;;;;;;;;33.00;30.00;;;;;8.70;56.19;102775.34;5069869;27;45663;-77
2022/01/14 09:15:48;;;;;;;;;31.50;29.00;;;;;8.73;55.00;102774.53;5063504;28;45366;-76
2022/01/14 09:18:15;;;;;;;;;37.25;32.50;;;;;8.79;54.41;102768.50;5067177;28;45663;-76
2022/01/14 09:20:40;;;;;;;;;35.50;31.75;;;;;9.07;54.26;102775.28;5068655;28;46563;-75
2022/01/14 09:23:12;;;;;;;;;40.00;36.00;;;;;9.16;53.95;102779.88;5067755;27;45421;-76
2022/01/14 09:25:38;;;;;;;;;26.25;26.25;;;;;9.34;53.44;102774.94;5059618;28;45622;-76
2022/01/14 09:28:03;;;;;;;;;34.75;27.50;;;;;9.49;52.63;102770.81;5063036;27;45643;-74
2022/01/14 09:30:29;;;;;;;;;43.50;35.25;;;;;9.73;51.87;102773.94;5063845;27;45529;-76
2022/01/14 09:32:54;;;;;;;;;38.25;32.75;;;;;9.88;51.97;102767.16;5066139;28;45560;-77
2022/01/14 09:35:19;;;;;;;;;46.25;40.75;;;;;9.97;51.65;102762.03;5071980;28;45429;-77
2022/01/14 09:37:45;;;;;;;;;44.25;34.00;;;;;9.83;51.31;102755.63;5070698;27;45425;-76
2022/01/14 09:40:14;;;;;;;;;30.00;25.00;;;;;9.59;51.54;102759.56;5055526;28;45514;-77
2022/01/14 09:42:39;;;;;;;;;42.75;35.00;;;;;9.72;51.95;102748.38;5055739;28;45391;-76
2022/01/14 09:45:07;;;;;;;;;41.25;36.25;;;;;9.81;51.18;102770.53;5057221;28;45250;-76
2022/01/14 09:47:32;;;;;;;;;35.25;32.00;;;;;9.71;50.77;102759.81;5074515;28;45358;-77
2022/01/14 09:49:57;;;;;;;;;35.50;30.00;;;;;9.73;50.89;102767.75;5072273;28;45455;-76
2022/01/14 09:52:23;;;;;;;;;42.25;33.75;;;;;9.64;50.60;102773.78;5081172;27;45349;-77
2022/01/14 09:54:51;;;;;;;;;45.00;36.25;;;;;9.53;50.94;102773.53;5080804;28;45172;-76
2022/01/14 09:57:18;;;;;;;;;45.50;37.00;;;;;9.72;50.62;102768.63;5065113;27;45593;-77
2022/01/14 09:59:44;;;;;;;;;39.25;33.00;;;;;9.94;49.87;102777.81;5065376;28;46406;-77
2022/01/14 10:02:30;;;;;;;;;37.00;32.00;;;;;10.48;49.36;102769.06;5055660;28;45572;-76
2022/01/14 10:04:57;;;;;;;;;33.50;32.75;;;;;10.98;47.80;102780.34;5069118;28;45563;-76
2022/01/14 10:07:22;;;;;;;;;37.00;28.25;;;;;11.37;47.68;102782.59;5074460;27;45512;-75
2022/01/14 10:09:55;;;;;;;;;38.25;37.00;;;;;11.81;46.09;102789.25;5066838;28;46002;-76
2022/01/14 10:12:20;;;;;;;;;37.75;33.75;;;;;12.08;46.00;102785.09;5069540;27;45544;-76
2022/01/14 10:14:58;;;;;;;;;35.00;29.50;;;;;12.37;44.76;102795.03;5067156;28;45895;-83
2022/01/14 10:17:25;;;;;;;;;35.00;32.00;;;;;12.15;43.64;102771.03;5071362;28;45536;-80
2022/01/14 10:19:51;;;;;;;;;42.25;37.25;;;;;12.08;44.35;102769.19;5077161;28;46399;-85
2022/01/14 10:22:31;;;;;;;;;44.50;39.50;;;;;12.03;44.04;102777.09;5062873;27;45362;-83
2022/01/14 10:25:09;;;;;;;;;52.75;45.25;;;;;11.91;45.25;102780.50;5066444;28;45364;-84
2022/01/14 10:27:51;;;;;;;;;44.00;40.75;;;;;12.29;44.43;102786.16;5068926;27;45563;-84
2022/01/14 10:30:20;;;;;;;;;42.75;36.50;;;;;12.56;43.81;102781.03;5059599;28;46342;-84
2022/01/14 10:32:54;;;;;;;;;44.00;37.25;;;;;12.93;43.66;102769.75;5062897;28;45666;-77
2022/01/14 10:35:22;;;;;;;;;53.75;43.25;;;;;12.93;43.26;102772.41;5056872;28;45385;-82
2022/01/14 10:37:48;;;;;;;;;63.75;48.25;;;;;13.01;42.81;102754.75;5069777;28;45630;-83
2022/01/14 10:40:24;;;;;;;;;35.00;27.25;;;;;13.42;42.40;102770.00;5071920;27;46137;-80
2022/01/14 10:42:52;;;;;;;;;45.75;41.50;;;;;13.59;42.03;102755.84;5073413;27;45389;-80
2022/01/14 10:45:23;;;;;;;;;48.25;39.75;;;;;13.90;41.55;102767.41;5062774;27;45425;-87
2022/01/14 10:48:02;;;;;;;;;56.75;44.75;;;;;13.72;40.86;102762.06;5070678;28;45256;-77
2022/01/14 10:50:29;;;;;;;;;64.00;48.00;;;;;13.59;41.14;102751.44;5061960;27;45544;-80
2022/01/14 10:52:56;;;;;;;;;58.50;47.25;;;;;13.81;41.01;102749.66;5081114;27;45601;-83
2022/01/14 10:55:35;;;;;;;;;42.25;38.25;;;;;14.30;40.23;102740.81;5062556;27;45650;-80
2022/01/14 10:58:03;;;;;;;;;44.25;41.00;;;;;14.60;39.64;102733.66;5061550;28;45426;-80
2022/01/14 11:00:29;;;;;;;;;43.50;38.50;;;;;14.74;39.47;102734.53;5069273;28;46173;-80
2022/01/14 11:02:56;;;;;;;;;53.00;43.50;;;;;14.51;39.54;102739.00;5059670;27;45504;-80
2022/01/14 11:05:23;;;;;;;;;50.75;42.00;;;;;14.45;39.30;102741.66;5064118;28;45437;-81
2022/01/14 11:07:51;;;;;;;;;47.25;41.25;;;;;14.52;39.68;102732.78;5061574;28;45631;-80
2022/01/14 11:10:25;;;;;;;;;49.75;43.00;;;;;14.77;39.73;102727.44;5053385;28;45421;-81
2022/01/14 11:12:55;;;;;;;;;44.00;40.75;;;;;15.16;38.77;102733.47;5066261;27;45557;-81
2022/01/14 11:15:23;;;;;;;;;58.25;48.25;;;;;15.18;38.38;102739.69;5059676;28;45468;-81
2022/01/14 11:17:51;;;;;;;;;56.50;45.00;;;;;15.42;38.26;102731.53;5068604;28;45366;-81
2022/01/14 11:20:29;;;;;;;;;64.25;48.75;;;;;15.07;37.06;102715.75;5075794;28;45585;-87
2022/01/14 11:26:06;;;;;;;;;55.75;43.50;;;;;15.26;37.39;102705.91;5074864;28;45487;-81
2022/01/14 11:28:34;;;;;;;;;53.25;43.50;;;;;15.53;37.03;102718.16;5073925;28;45251;-80
2022/01/14 11:31:00;;;;;;;;;59.25;44.25;;;;;15.69;37.21;102702.94;5075532;27;46226;-80
2022/01/14 11:33:42;;;;;;;;;59.00;45.75;;;;;15.96;36.48;102695.66;5074807;27;45530;-80
2022/01/14 11:36:09;;;;;;;;;61.50;46.75;;;;;15.99;36.07;102700.94;5070465;27;45540;-80
2022/01/14 11:38:43;;;;;;;;;55.75;42.00;;;;;15.82;36.38;102703.78;5069249;28;45485;-81
2022/01/14 11:41:13;;;;;;;;;55.50;46.75;;;;;15.75;35.90;102692.22;5077524;28;45505;-81
2022/01/14 11:43:39;;;;;;;;;55.00;43.75;;;;;15.80;36.55;102690.47;5070303;28;45387;-81
2022/01/14 11:46:05;;;;;;;;;55.50;46.75;;;;;15.76;36.49;102688.66;5070594;27;45398;-80
2022/01/14 11:48:38;;;;;;;;;51.00;44.00;;;;;15.84;36.25;102685.09;5073282;27;45634;-81
2022/01/14 11:51:09;;;;;;;;;51.00;45.50;;;;;15.90;35.80;102674.38;5073752;27;45377;-80
2022/01/14 11:53:40;;;;;;;;;57.25;43.00;;;;;15.95;35.32;102669.88;5078093;27;45754;-81